Time;durP1;ratioP1;P1;durP2;ratioP2;P2;SDS_P1;SDS_P2;PMS_P1;PMS_P2;Temp;Humidity;BMP_temperature;BMP_pressure;BME280_temperature;BME280_humidity;BME280_pressure;Samples;Min_cycle;Max_cycle;Signal;HPM_P1;HPM_P2
2023/05/10 00:01:54;;;;;;;;;;;12.90;50.50;;;;;;4146917;28;20024;-85
2023/05/10 00:04:15;;;;;;;;;;;12.90;50.50;;;;;;4159143;28;19945;-84
2023/05/10 00:06:36;;;;;;;;;;;12.90;50.50;;;;;;4164040;28;20127;-84
2023/05/10 00:08:57;;;;;;;;;;;12.90;50.60;;;;;;4164358;28;19921;-85
2023/05/10 00:11:20;;;;;;;;;;;12.80;50.90;;;;;;4144584;28;19944;-84
2023/05/10 00:13:41;;;;;;;;;;;12.70;50.60;;;;;;4165607;28;19917;-84
2023/05/10 00:16:01;;;;;;;;;;;12.80;50.60;;;;;;4150150;28;19925;-84
2023/05/10 00:18:22;;;;;;;;;;;12.70;50.70;;;;;;4150812;28;19992;-84
2023/05/10 00:20:43;;;;;;;;;;;12.60;51.90;;;;;;4155016;28;19925;-84
2023/05/10 00:23:03;;;;;;;;;;;12.60;51.30;;;;;;4164159;28;20004;-84
2023/05/10 00:25:24;;;;;;;;;;;12.50;51.10;;;;;;4162720;28;19920;-84
2023/05/10 00:27:25;;;;;;;;;;;12.50;51.40;;;;;;4163885;28;20123;-84
2023/05/10 00:29:27;;;;;;;;;;;12.50;51.10;;;;;;4148831;28;19917;-85
2023/05/10 00:31:28;;;;;;;;;;;12.40;50.90;;;;;;4145764;28;19917;-84
2023/05/10 00:33:49;;;;;;;;;;;12.40;52.00;;;;;;4167939;28;21081;-85
2023/05/10 00:35:50;;;;;;;;;;;12.30;51.30;;;;;;4135151;28;19983;-84
2023/05/10 00:38:10;;;;;;;;;;;12.30;51.60;;;;;;4166465;28;19913;-84
2023/05/10 00:40:37;;;;;;;;;;;12.20;51.40;;;;;;4166214;28;19917;-84
2023/05/10 00:43:00;;;;;;;;;;;12.10;51.50;;;;;;4149966;28;19959;-85
2023/05/10 00:45:24;;;;;;;;;;;12.10;51.70;;;;;;4164191;28;19917;-85
2023/05/10 00:47:45;;;;;;;;;;;12.00;51.60;;;;;;4152185;28;19917;-85
2023/05/10 00:50:09;;;;;;;;;;;12.00;51.40;;;;;;4167560;28;19921;-84
2023/05/10 00:52:25;;;;;;;;;;;11.90;51.40;;;;;;4164454;28;19969;-86
2023/05/10 00:54:32;;;;;;;;;;;11.90;52.20;;;;;;4164650;28;19913;-84
2023/05/10 00:56:48;;;;;;;;;;;11.80;52.00;;;;;;4135058;28;19947;-86
2023/05/10 00:59:04;;;;;;;;;;;11.80;52.90;;;;;;4154829;28;19921;-86
2023/05/10 01:01:05;;;;;;;;;;;11.70;52.30;;;;;;4142710;28;19921;-84
2023/05/10 01:03:06;;;;;;;;;;;11.70;52.10;;;;;;4159445;28;19923;-85
2023/05/10 01:05:07;;;;;;;;;;;11.70;52.00;;;;;;4163579;28;19923;-84
2023/05/10 01:07:08;;;;;;;;;;;11.60;53.00;;;;;;4164942;28;20000;-84
2023/05/10 01:09:09;;;;;;;;;;;11.60;53.00;;;;;;4144992;28;19922;-84
2023/05/10 01:11:10;;;;;;;;;;;11.50;52.50;;;;;;4144087;28;19924;-84
2023/05/10 01:13:11;;;;;;;;;;;11.50;52.60;;;;;;4144301;28;20017;-85
2023/05/10 01:15:19;;;;;;;;;;;11.50;52.50;;;;;;4131996;28;19921;-84
2023/05/10 01:17:20;;;;;;;;;;;11.40;52.60;;;;;;4162435;28;19917;-84
2023/05/10 01:19:25;;;;;;;;;;;11.40;52.70;;;;;;4162681;28;19909;-84
2023/05/10 01:21:45;;;;;;;;;;;11.30;52.70;;;;;;4142044;28;19921;-84
2023/05/10 01:24:03;;;;;;;;;;;11.30;53.00;;;;;;4142943;28;19917;-84
2023/05/10 01:26:14;;;;;;;;;;;11.30;53.10;;;;;;4125768;28;19937;-83
2023/05/10 01:28:24;;;;;;;;;;;11.20;53.50;;;;;;4166477;28;19924;-84
2023/05/10 01:30:44;;;;;;;;;;;11.20;53.10;;;;;;4163913;28;19937;-84
2023/05/10 01:33:03;;;;;;;;;;;11.10;53.70;;;;;;4178012;28;19924;-84
2023/05/10 01:35:09;;;;;;;;;;;11.10;54.10;;;;;;4175184;28;19916;-85
2023/05/10 01:37:20;;;;;;;;;;;11.00;53.60;;;;;;4177187;28;19924;-84
2023/05/10 01:39:24;;;;;;;;;;;11.00;53.60;;;;;;4139271;28;19996;-84
2023/05/10 01:41:25;;;;;;;;;;;11.00;54.10;;;;;;4144491;28;19945;-84
2023/05/10 01:43:35;;;;;;;;;;;11.00;54.00;;;;;;4134323;28;19917;-85
2023/05/10 01:45:44;;;;;;;;;;;10.90;53.80;;;;;;4164330;28;19982;-84
2023/05/10 01:47:49;;;;;;;;;;;10.90;53.40;;;;;;4163075;28;19970;-84
2023/05/10 01:49:53;;;;;;;;;;;10.90;54.50;;;;;;4166486;28;19917;-84
2023/05/10 01:51:59;;;;;;;;;;;10.90;54.00;;;;;;4150011;28;20207;-85
2023/05/10 01:54:03;;;;;;;;;;;10.80;53.80;;;;;;4145596;28;19914;-84
2023/05/10 01:56:23;;;;;;;;;;;10.80;54.00;;;;;;4131160;28;20399;-85
2023/05/10 01:58:29;;;;;;;;;;;10.80;55.00;;;;;;4144810;28;19919;-84
2023/05/10 02:00:44;;;;;;;;;;;10.70;54.50;;;;;;4161818;28;19917;-84
2023/05/10 02:03:08;;;;;;;;;;;10.70;54.80;;;;;;4160584;28;19940;-84
2023/05/10 02:05:10;;;;;;;;;;;10.60;56.20;;;;;;4162343;28;19988;-84
2023/05/10 02:07:34;;;;;;;;;;;10.60;56.10;;;;;;4158804;28;19918;-85
2023/05/10 02:09:58;;;;;;;;;;;10.60;56.10;;;;;;4160067;28;20442;-85
2023/05/10 02:12:03;;;;;;;;;;;10.60;56.40;;;;;;4130721;28;19922;-84
2023/05/10 02:14:25;;;;;;;;;;;10.50;56.60;;;;;;4159336;28;19925;-84
2023/05/10 02:16:53;;;;;;;;;;;10.60;56.20;;;;;;4156875;28;19913;-84
2023/05/10 02:19:15;;;;;;;;;;;10.50;56.80;;;;;;4145104;28;19918;-84
2023/05/10 02:21:37;;;;;;;;;;;10.50;56.50;;;;;;4161528;28;19917;-84
2023/05/10 02:23:48;;;;;;;;;;;10.50;56.00;;;;;;4124672;28;20319;-83
2023/05/10 02:26:10;;;;;;;;;;;10.50;56.50;;;;;;4157920;28;19988;-84
2023/05/10 02:28:31;;;;;;;;;;;10.40;57.80;;;;;;4144217;28;19924;-84
2023/05/10 02:30:53;;;;;;;;;;;10.40;58.80;;;;;;4161007;28;19964;-84
2023/05/10 02:33:14;;;;;;;;;;;10.40;59.40;;;;;;4146015;28;19917;-84
2023/05/10 02:35:35;;;;;;;;;;;10.30;59.00;;;;;;4161302;28;19924;-83
2023/05/10 02:38:04;;;;;;;;;;;10.40;59.50;;;;;;4158390;28;19963;-84
2023/05/10 02:40:25;;;;;;;;;;;10.30;59.10;;;;;;4159407;28;19921;-83
2023/05/10 02:42:47;;;;;;;;;;;10.30;59.00;;;;;;4156812;28;19984;-84
2023/05/10 02:45:10;;;;;;;;;;;10.30;58.70;;;;;;4159620;28;19913;-84
2023/05/10 02:47:31;;;;;;;;;;;10.20;58.90;;;;;;4160299;28;19953;-83
2023/05/10 02:49:55;;;;;;;;;;;10.20;58.60;;;;;;4159571;28;19924;-84
2023/05/10 02:52:21;;;;;;;;;;;10.20;58.10;;;;;;4160147;28;19964;-84
2023/05/10 02:54:45;;;;;;;;;;;10.20;58.00;;;;;;4160659;28;19913;-83
2023/05/10 02:57:06;;;;;;;;;;;10.20;57.80;;;;;;4159742;28;19917;-84
2023/05/10 02:59:27;;;;;;;;;;;10.20;57.80;;;;;;4146355;28;19921;-84
2023/05/10 03:01:50;;;;;;;;;;;10.10;58.20;;;;;;4161959;28;19917;-84
2023/05/10 03:04:13;;;;;;;;;;;10.10;58.70;;;;;;4148537;28;19951;-84
2023/05/10 03:06:33;;;;;;;;;;;10.10;60.60;;;;;;4149348;28;20013;-83
2023/05/10 03:08:54;;;;;;;;;;;10.10;61.00;;;;;;4160316;28;19917;-83
2023/05/10 03:11:35;;;;;;;;;;;10.00;60.60;;;;;;4158882;28;19920;-83
2023/05/10 03:14:05;;;;;;;;;;;10.00;61.70;;;;;;4161612;28;19968;-84
2023/05/10 03:16:29;;;;;;;;;;;10.00;62.60;;;;;;4142535;28;19965;-83
2023/05/10 03:18:36;;;;;;;;;;;10.00;62.90;;;;;;4160188;28;19917;-83
2023/05/10 03:20:44;;;;;;;;;;;10.00;62.70;;;;;;4141743;28;20012;-84
2023/05/10 03:22:46;;;;;;;;;;;9.90;63.40;;;;;;4159019;28;20018;-83
2023/05/10 03:24:51;;;;;;;;;;;10.00;62.90;;;;;;4145030;28;19917;-83
2023/05/10 03:26:54;;;;;;;;;;;9.90;62.30;;;;;;4158313;28;19964;-84
2023/05/10 03:28:55;;;;;;;;;;;9.90;62.70;;;;;;4158918;28;20015;-83
2023/05/10 03:30:56;;;;;;;;;;;9.90;62.50;;;;;;4140751;28;19928;-84
2023/05/10 03:32:57;;;;;;;;;;;9.90;62.70;;;;;;4157809;28;20357;-84
2023/05/10 03:34:57;;;;;;;;;;;9.90;62.10;;;;;;4161287;28;19921;-83
2023/05/10 03:36:58;;;;;;;;;;;9.90;62.50;;;;;;4140536;28;20455;-83
2023/05/10 03:38:59;;;;;;;;;;;9.90;61.40;;;;;;4126452;28;19921;-83
2023/05/10 03:40:59;;;;;;;;;;;9.90;61.00;;;;;;4126583;28;19926;-83
2023/05/10 03:43:00;;;;;;;;;;;9.90;60.40;;;;;;4117622;28;20277;-84
2023/05/10 03:45:00;;;;;;;;;;;9.80;61.00;;;;;;4161952;28;20385;-84
2023/05/10 03:47:01;;;;;;;;;;;9.90;60.60;;;;;;4143929;28;19925;-83
2023/05/10 03:49:02;;;;;;;;;;;9.90;60.80;;;;;;4161447;28;20272;-83
2023/05/10 03:51:05;;;;;;;;;;;9.80;60.30;;;;;;4140659;28;19989;-84
2023/05/10 03:53:06;;;;;;;;;;;9.90;60.20;;;;;;4147490;28;19921;-83
2023/05/10 03:55:07;;;;;;;;;;;9.90;61.50;;;;;;4145206;28;20349;-83
2023/05/10 03:57:09;;;;;;;;;;;9.80;62.80;;;;;;4125048;28;19932;-83
2023/05/10 03:59:10;;;;;;;;;;;9.90;63.00;;;;;;4126098;28;20064;-83
2023/05/10 04:01:11;;;;;;;;;;;9.90;63.50;;;;;;4144731;28;19940;-83
2023/05/10 04:03:17;;;;;;;;;;;9.90;64.00;;;;;;4146243;28;19981;-84
2023/05/10 04:05:18;;;;;;;;;;;9.80;63.90;;;;;;4124857;28;19969;-82
2023/05/10 04:07:19;;;;;;;;;;;9.90;64.10;;;;;;4162725;28;19925;-84
2023/05/10 04:09:19;;;;;;;;;;;9.80;63.10;;;;;;4163865;28;19959;-83
2023/05/10 04:11:21;;;;;;;;;;;9.90;62.70;;;;;;4144179;28;19924;-83
2023/05/10 04:13:25;;;;;;;;;;;9.90;64.60;;;;;;4161241;28;19939;-84
2023/05/10 04:15:25;;;;;;;;;;;9.90;64.90;;;;;;4124116;28;19922;-83
2023/05/10 04:17:26;;;;;;;;;;;9.90;65.80;;;;;;4160727;28;19924;-83
2023/05/10 04:19:30;;;;;;;;;;;9.90;65.30;;;;;;4160336;28;19921;-83
2023/05/10 04:21:31;;;;;;;;;;;9.90;65.80;;;;;;4144290;28;19929;-83
2023/05/10 04:23:31;;;;;;;;;;;10.00;65.80;;;;;;4160675;28;20272;-84
2023/05/10 04:25:33;;;;;;;;;;;9.90;65.60;;;;;;4145575;28;20287;-83
2023/05/10 04:27:34;;;;;;;;;;;10.00;66.10;;;;;;4159309;28;19955;-84
2023/05/10 04:29:37;;;;;;;;;;;10.00;65.60;;;;;;4144747;28;19918;-83
2023/05/10 04:31:38;;;;;;;;;;;9.90;65.30;;;;;;4162190;28;19915;-83
2023/05/10 04:33:38;;;;;;;;;;;10.10;66.20;;;;;;4158992;28;19921;-83
2023/05/10 04:35:39;;;;;;;;;;;10.00;67.20;;;;;;4141736;28;19921;-84
2023/05/10 04:37:40;;;;;;;;;;;10.20;66.80;;;;;;4165092;28;19924;-83
2023/05/10 04:39:41;;;;;;;;;;;10.10;67.00;;;;;;4159623;28;19925;-83
2023/05/10 04:42:05;;;;;;;;;;;10.20;66.40;;;;;;4249781;27;19952;-83
2023/05/10 04:44:06;;;;;;;;;;;10.10;68.00;;;;;;4234120;27;20453;-84
2023/05/10 04:46:10;;;;;;;;;;;10.20;68.40;;;;;;4217155;28;19920;-83
2023/05/10 04:48:17;;;;;;;;;;;10.20;68.40;;;;;;4234765;27;19989;-83
2023/05/10 04:50:18;;;;;;;;;;;10.20;68.10;;;;;;4236364;27;19916;-83
2023/05/10 04:52:21;;;;;;;;;;;10.30;68.70;;;;;;4245497;27;19951;-83
2023/05/10 04:54:22;;;;;;;;;;;10.30;68.70;;;;;;4221093;28;19916;-82
2023/05/10 04:56:23;;;;;;;;;;;10.30;68.70;;;;;;4250644;27;20060;-83
2023/05/10 04:58:23;;;;;;;;;;;10.40;68.80;;;;;;4249677;27;20678;-83
2023/05/10 05:00:24;;;;;;;;;;;10.40;68.80;;;;;;4219431;28;19986;-84
2023/05/10 05:02:28;;;;;;;;;;;10.40;68.70;;;;;;4229327;27;19967;-84
2023/05/10 05:04:29;;;;;;;;;;;10.50;68.80;;;;;;4252075;27;19998;-83
2023/05/10 05:06:52;;;;;;;;;;;10.50;68.50;;;;;;4229986;27;19926;-84
2023/05/10 05:09:12;;;;;;;;;;;10.50;68.30;;;;;;4242320;27;19922;-84
2023/05/10 05:11:33;;;;;;;;;;;10.60;68.20;;;;;;4246091;27;19916;-83
2023/05/10 05:13:53;;;;;;;;;;;10.70;68.40;;;;;;4240416;27;19915;-84
2023/05/10 05:16:14;;;;;;;;;;;10.80;68.00;;;;;;4228816;27;19926;-84
2023/05/10 05:18:35;;;;;;;;;;;10.80;68.10;;;;;;4245155;27;19967;-83
2023/05/10 05:20:36;;;;;;;;;;;10.90;68.00;;;;;;4236271;27;19939;-83
2023/05/10 05:22:37;;;;;;;;;;;10.90;68.50;;;;;;4246022;27;19918;-84
2023/05/10 05:24:40;;;;;;;;;;;11.00;67.90;;;;;;4249962;27;19918;-83
2023/05/10 05:26:41;;;;;;;;;;;11.00;67.40;;;;;;4244866;27;19911;-84
2023/05/10 05:28:41;;;;;;;;;;;11.00;67.90;;;;;;4247374;27;20677;-84
2023/05/10 05:30:42;;;;;;;;;;;11.10;67.60;;;;;;4252442;27;20745;-83
2023/05/10 05:32:43;;;;;;;;;;;11.20;66.90;;;;;;4229240;27;19916;-84
2023/05/10 05:34:47;;;;;;;;;;;11.30;66.60;;;;;;4213201;28;19923;-84
2023/05/10 05:36:47;;;;;;;;;;;11.30;66.50;;;;;;4223417;27;19920;-84
2023/05/10 05:38:48;;;;;;;;;;;11.30;65.90;;;;;;4229725;27;19916;-83
2023/05/10 05:40:49;;;;;;;;;;;11.40;65.80;;;;;;4251787;27;19976;-84
2023/05/10 05:42:49;;;;;;;;;;;11.50;65.60;;;;;;4215939;28;19927;-84
2023/05/10 05:44:50;;;;;;;;;;;11.50;65.10;;;;;;4227073;27;19927;-84
2023/05/10 05:46:51;;;;;;;;;;;11.60;65.20;;;;;;4230367;27;20003;-84
2023/05/10 05:48:52;;;;;;;;;;;11.70;64.80;;;;;;4243301;27;19920;-83
2023/05/10 05:50:59;;;;;;;;;;;11.70;64.30;;;;;;4246659;27;19918;-83
2023/05/10 05:52:59;;;;;;;;;;;11.80;63.90;;;;;;4240809;27;20474;-83
2023/05/10 05:55:00;;;;;;;;;;;11.90;63.80;;;;;;4237643;27;19928;-84
2023/05/10 05:57:08;;;;;;;;;;;11.90;63.70;;;;;;4217426;27;19948;-84
2023/05/10 05:59:24;;;;;;;;;;;11.90;63.40;;;;;;4201426;28;19917;-83
2023/05/10 06:01:28;;;;;;;;;;;12.00;63.60;;;;;;4203587;27;19923;-84
2023/05/10 06:03:28;;;;;;;;;;;12.10;63.20;;;;;;4237302;27;20361;-85
2023/05/10 06:05:29;;;;;;;;;;;12.20;63.10;;;;;;4234715;27;19954;-84
2023/05/10 06:07:29;;;;;;;;;;;12.20;63.00;;;;;;4204167;28;19923;-84
2023/05/10 06:09:30;;;;;;;;;;;12.20;62.70;;;;;;4232177;27;19922;-84
2023/05/10 06:11:32;;;;;;;;;;;12.30;62.90;;;;;;4220495;28;19920;-84
2023/05/10 06:13:33;;;;;;;;;;;12.40;62.60;;;;;;4237120;27;19965;-85
2023/05/10 06:15:34;;;;;;;;;;;12.40;62.50;;;;;;4217371;28;19912;-84
2023/05/10 06:17:35;;;;;;;;;;;12.40;62.20;;;;;;4231128;27;19916;-84
2023/05/10 06:19:36;;;;;;;;;;;12.50;62.00;;;;;;4232151;27;20357;-84
2023/05/10 06:21:42;;;;;;;;;;;12.50;62.30;;;;;;4198112;28;19925;-83
2023/05/10 06:23:46;;;;;;;;;;;12.70;62.30;;;;;;4200636;28;19912;-83
2023/05/10 06:25:46;;;;;;;;;;;12.70;62.30;;;;;;4202395;28;19938;-84
2023/05/10 06:27:47;;;;;;;;;;;12.80;62.20;;;;;;4208195;28;19917;-84
2023/05/10 06:29:50;;;;;;;;;;;12.80;62.00;;;;;;4201235;28;19912;-84
2023/05/10 06:31:50;;;;;;;;;;;12.90;62.00;;;;;;4214423;27;20357;-84
2023/05/10 06:33:51;;;;;;;;;;;13.00;61.70;;;;;;4218587;27;20308;-84
2023/05/10 06:35:52;;;;;;;;;;;13.00;61.50;;;;;;4220110;27;19915;-83
2023/05/10 06:37:55;;;;;;;;;;;13.20;61.60;;;;;;4215834;27;19916;-84
2023/05/10 06:39:56;;;;;;;;;;;13.30;61.50;;;;;;4207923;28;20424;-84
2023/05/10 06:41:59;;;;;;;;;;;13.30;61.20;;;;;;4216332;27;19920;-83
2023/05/10 06:44:00;;;;;;;;;;;13.40;61.00;;;;;;4229018;27;20030;-84
2023/05/10 06:46:00;;;;;;;;;;;13.40;60.10;;;;;;4216019;27;20409;-83
2023/05/10 06:48:01;;;;;;;;;;;13.50;59.60;;;;;;4234247;27;20006;-84
2023/05/10 06:50:02;;;;;;;;;;;13.60;59.70;;;;;;4219809;27;19916;-84
2023/05/10 06:52:03;;;;;;;;;;;13.70;59.50;;;;;;4234859;27;19951;-84
2023/05/10 06:54:09;;;;;;;;;;;13.70;59.50;;;;;;4238318;27;19957;-84
2023/05/10 06:56:09;;;;;;;;;;;13.90;59.60;;;;;;4211614;28;19919;-84
2023/05/10 06:58:10;;;;;;;;;;;13.90;59.60;;;;;;4187743;27;19925;-84
2023/05/10 07:00:14;;;;;;;;;;;14.00;59.50;;;;;;4199236;28;19951;-85
2023/05/10 07:02:14;;;;;;;;;;;14.00;59.40;;;;;;4168305;28;20387;-84
2023/05/10 07:04:15;;;;;;;;;;;14.10;59.20;;;;;;4197403;28;19992;-84
2023/05/10 07:06:36;;;;;;;;;;;14.10;60.00;;;;;;4186532;28;20015;-83
2023/05/10 07:08:56;;;;;;;;;;;14.30;59.00;;;;;;4202295;28;20392;-85
2023/05/10 07:11:17;;;;;;;;;;;14.30;57.70;;;;;;4185851;28;20028;-83
2023/05/10 07:13:41;;;;;;;;;;;14.30;57.00;;;;;;4203766;28;19954;-84
2023/05/10 07:16:01;;;;;;;;;;;14.40;57.60;;;;;;4202187;28;19922;-84
2023/05/10 07:18:22;;;;;;;;;;;14.50;57.90;;;;;;4203538;28;19991;-84
2023/05/10 07:20:43;;;;;;;;;;;14.50;58.20;;;;;;4203077;28;19987;-83
2023/05/10 07:23:06;;;;;;;;;;;14.70;58.10;;;;;;4202649;28;19952;-84
2023/05/10 07:25:30;;;;;;;;;;;14.70;56.80;;;;;;4188733;28;19916;-84
2023/05/10 07:27:53;;;;;;;;;;;14.80;57.20;;;;;;4191369;28;19916;-84
2023/05/10 07:29:54;;;;;;;;;;;14.80;56.90;;;;;;4201798;28;19920;-83
2023/05/10 07:31:55;;;;;;;;;;;14.90;56.30;;;;;;4184018;28;19920;-85
2023/05/10 07:33:56;;;;;;;;;;;14.90;56.70;;;;;;4199447;28;19916;-85
2023/05/10 07:35:59;;;;;;;;;;;15.00;56.80;;;;;;4181565;28;19925;-85
2023/05/10 07:38:03;;;;;;;;;;;15.00;56.80;;;;;;4203981;28;19916;-85
2023/05/10 07:40:04;;;;;;;;;;;15.10;57.00;;;;;;4188337;28;19971;-84
2023/05/10 07:42:05;;;;;;;;;;;15.20;56.80;;;;;;4182869;28;20387;-84
2023/05/10 07:44:06;;;;;;;;;;;15.20;56.50;;;;;;4204598;28;19917;-85
2023/05/10 07:46:07;;;;;;;;;;;15.30;56.70;;;;;;4182457;28;19916;-85
2023/05/10 07:48:07;;;;;;;;;;;15.30;56.70;;;;;;4200659;28;20025;-85
2023/05/10 07:50:08;;;;;;;;;;;15.50;56.80;;;;;;4201864;28;19982;-84
2023/05/10 07:52:09;;;;;;;;;;;15.50;56.60;;;;;;4190381;28;19917;-84
2023/05/10 07:54:10;;;;;;;;;;;15.50;55.80;;;;;;4198968;28;19920;-84
2023/05/10 07:56:29;;;;;;;;;;;15.50;54.30;;;;;;4201414;28;19917;-85
2023/05/10 07:58:30;;;;;;;;;;;15.60;55.00;;;;;;4162560;28;19937;-85
2023/05/10 08:00:31;;;;;;;;;;;15.70;55.30;;;;;;4181929;28;20706;-83
2023/05/10 08:02:32;;;;;;;;;;;15.60;55.30;;;;;;4199768;28;20015;-85
2023/05/10 08:04:33;;;;;;;;;;;15.70;55.30;;;;;;4181125;28;20362;-85
2023/05/10 08:06:33;;;;;;;;;;;15.70;55.20;;;;;;4167749;28;19924;-84
2023/05/10 08:08:34;;;;;;;;;;;15.70;54.30;;;;;;4199715;28;19931;-84
2023/05/10 08:10:34;;;;;;;;;;;15.70;54.00;;;;;;4181803;28;20011;-83
2023/05/10 08:12:35;;;;;;;;;;;15.60;52.90;;;;;;4172053;28;19914;-84
2023/05/10 08:14:36;;;;;;;;;;;15.70;53.80;;;;;;4163752;28;19923;-84
2023/05/10 08:16:37;;;;;;;;;;;15.60;53.90;;;;;;4197753;28;19919;-83
2023/05/10 08:18:37;;;;;;;;;;;15.70;54.00;;;;;;4184011;28;19955;-84
2023/05/10 08:20:38;;;;;;;;;;;15.60;54.60;;;;;;4170089;28;19924;-85
2023/05/10 08:22:39;;;;;;;;;;;15.70;54.20;;;;;;4180554;28;20170;-84
2023/05/10 08:24:41;;;;;;;;;;;15.70;54.50;;;;;;4201194;28;19966;-84
2023/05/10 08:26:42;;;;;;;;;;;15.70;53.70;;;;;;4185329;28;19919;-85
2023/05/10 08:28:42;;;;;;;;;;;15.80;54.40;;;;;;4199898;28;19916;-85
2023/05/10 08:30:43;;;;;;;;;;;15.80;54.70;;;;;;4199671;28;19944;-85
2023/05/10 08:32:47;;;;;;;;;;;15.80;52.80;;;;;;4183440;28;19953;-84
2023/05/10 08:34:47;;;;;;;;;;;15.90;53.80;;;;;;4170590;28;20308;-86
2023/05/10 08:36:51;;;;;;;;;;;15.90;54.00;;;;;;4201719;28;19919;-83
2023/05/10 08:38:52;;;;;;;;;;;16.00;54.20;;;;;;4189565;28;19913;-85
2023/05/10 08:40:56;;;;;;;;;;;15.90;52.60;;;;;;4182054;28;19936;-85
2023/05/10 08:43:09;;;;;;;;;;;15.90;53.30;;;;;;4185522;28;20221;-83
2023/05/10 08:45:10;;;;;;;;;;;15.90;53.00;;;;;;4172106;28;19921;-86
2023/05/10 08:47:13;;;;;;;;;;;16.00;53.60;;;;;;4202705;28;19912;-85
2023/05/10 08:49:16;;;;;;;;;;;16.00;53.80;;;;;;4180076;28;19923;-85
2023/05/10 08:51:18;;;;;;;;;;;16.10;53.90;;;;;;4189633;28;19952;-84
2023/05/10 08:53:19;;;;;;;;;;;16.20;54.10;;;;;;4202870;28;19919;-86
2023/05/10 08:55:23;;;;;;;;;;;16.20;53.00;;;;;;4168458;28;20379;-85
2023/05/10 08:57:27;;;;;;;;;;;16.30;53.60;;;;;;4175256;28;19921;-84
2023/05/10 08:59:38;;;;;;;;;;;16.20;52.00;;;;;;4170404;28;20015;-84
2023/05/10 09:01:40;;;;;;;;;;;16.30;52.90;;;;;;4185690;28;19925;-84
2023/05/10 09:03:41;;;;;;;;;;;16.40;52.80;;;;;;4199840;28;19923;-86
2023/05/10 09:05:45;;;;;;;;;;;16.40;52.80;;;;;;4183064;28;20366;-84
2023/05/10 09:07:46;;;;;;;;;;;16.40;53.20;;;;;;4200253;28;19912;-84
2023/05/10 09:09:47;;;;;;;;;;;16.50;53.60;;;;;;4177729;28;19924;-84
2023/05/10 09:11:47;;;;;;;;;;;16.50;52.50;;;;;;4201696;28;19954;-84
2023/05/10 09:13:52;;;;;;;;;;;16.60;53.30;;;;;;4182834;28;19942;-85
2023/05/10 09:15:58;;;;;;;;;;;16.60;52.70;;;;;;4184828;28;19912;-85
2023/05/10 09:18:02;;;;;;;;;;;16.70;53.10;;;;;;4171047;28;19925;-84
2023/05/10 09:20:17;;;;;;;;;;;16.70;51.60;;;;;;4180410;28;19916;-85
2023/05/10 09:22:26;;;;;;;;;;;16.80;52.30;;;;;;4180976;28;19982;-84
2023/05/10 09:24:47;;;;;;;;;;;16.80;52.70;;;;;;4202294;28;19959;-85
2023/05/10 09:27:08;;;;;;;;;;;16.90;53.20;;;;;;4182516;28;20237;-84
2023/05/10 09:29:39;;;;;;;;;;;17.00;52.90;;;;;;4200359;28;19919;-85
2023/05/10 09:31:59;;;;;;;;;;;17.00;52.00;;;;;;4184548;28;20482;-83
2023/05/10 09:34:30;;;;;;;;;;;17.10;51.40;;;;;;4203183;28;19923;-85
2023/05/10 09:36:58;;;;;;;;;;;17.20;52.70;;;;;;4202680;28;19924;-85
2023/05/10 09:39:19;;;;;;;;;;;17.20;52.30;;;;;;4204310;28;19916;-84
2023/05/10 09:41:35;;;;;;;;;;;17.30;52.00;;;;;;4173104;28;20372;-85
2023/05/10 09:43:56;;;;;;;;;;;17.30;52.50;;;;;;4188763;28;19923;-86
2023/05/10 09:46:16;;;;;;;;;;;17.40;52.20;;;;;;4205902;28;20015;-84
2023/05/10 09:48:44;;;;;;;;;;;17.40;51.60;;;;;;4185768;28;19955;-85
2023/05/10 09:51:05;;;;;;;;;;;17.50;51.90;;;;;;4199680;28;19917;-85
2023/05/10 09:53:26;;;;;;;;;;;17.60;50.90;;;;;;4189030;28;20044;-87
2023/05/10 09:55:46;;;;;;;;;;;17.60;51.10;;;;;;4203435;28;20002;-86
2023/05/10 09:58:10;;;;;;;;;;;17.60;51.60;;;;;;4204889;28;19912;-84
2023/05/10 10:00:34;;;;;;;;;;;17.60;50.70;;;;;;4195006;28;19957;-85
2023/05/10 10:02:36;;;;;;;;;;;17.60;50.80;;;;;;4207287;28;20062;-85
2023/05/10 10:04:39;;;;;;;;;;;17.60;51.60;;;;;;4208495;28;20006;-86
2023/05/10 10:06:39;;;;;;;;;;;17.50;51.40;;;;;;4177101;28;21179;-84
2023/05/10 10:08:40;;;;;;;;;;;17.40;51.10;;;;;;4205206;28;20003;-84
2023/05/10 10:10:42;;;;;;;;;;;17.50;51.30;;;;;;4204846;28;20003;-84
2023/05/10 10:12:42;;;;;;;;;;;17.30;51.70;;;;;;4187406;28;19913;-85
2023/05/10 10:14:43;;;;;;;;;;;17.40;51.80;;;;;;4189628;28;19923;-84
2023/05/10 10:16:44;;;;;;;;;;;17.30;51.10;;;;;;4205392;28;20786;-84
2023/05/10 10:18:45;;;;;;;;;;;17.20;50.60;;;;;;4188473;28;19913;-84
2023/05/10 10:20:45;;;;;;;;;;;17.20;51.10;;;;;;4205847;28;19916;-85
2023/05/10 10:22:47;;;;;;;;;;;17.00;52.30;;;;;;4202481;28;20041;-84
2023/05/10 10:24:48;;;;;;;;;;;16.90;51.40;;;;;;4189848;28;20363;-84
2023/05/10 10:26:50;;;;;;;;;;;16.90;51.90;;;;;;4192674;28;20299;-85
2023/05/10 10:29:08;;;;;;;;;;;16.70;52.40;;;;;;4202041;28;19948;-85
2023/05/10 10:31:17;;;;;;;;;;;16.80;52.90;;;;;;4181876;28;19956;-85
2023/05/10 10:33:23;;;;;;;;;;;16.80;52.70;;;;;;4202971;28;20015;-84
2023/05/10 10:35:27;;;;;;;;;;;16.80;52.10;;;;;;4193661;28;20494;-85
2023/05/10 10:37:47;;;;;;;;;;;16.70;51.90;;;;;;4206921;28;19922;-85
2023/05/10 10:39:48;;;;;;;;;;;16.70;52.00;;;;;;4189888;28;19916;-85
2023/05/10 10:41:50;;;;;;;;;;;16.70;52.50;;;;;;4194693;28;20007;-85
2023/05/10 10:44:11;;;;;;;;;;;16.90;52.60;;;;;;4212102;28;19912;-85
2023/05/10 10:46:13;;;;;;;;;;;16.90;52.60;;;;;;4200130;28;19924;-85
2023/05/10 10:48:23;;;;;;;;;;;16.90;52.60;;;;;;4213754;28;19916;-85
2023/05/10 10:50:24;;;;;;;;;;;17.00;52.90;;;;;;4198412;28;19964;-86
2023/05/10 10:52:29;;;;;;;;;;;17.00;52.60;;;;;;4213852;28;19931;-85
2023/05/10 10:54:32;;;;;;;;;;;17.10;52.80;;;;;;4197109;28;20014;-85
2023/05/10 10:56:32;;;;;;;;;;;17.10;52.30;;;;;;4183442;28;19947;-85
2023/05/10 10:58:33;;;;;;;;;;;17.20;52.50;;;;;;4215134;28;19916;-86
2023/05/10 11:00:37;;;;;;;;;;;17.20;52.30;;;;;;4201336;28;19920;-85
2023/05/10 11:02:41;;;;;;;;;;;17.20;52.30;;;;;;4196058;28;19922;-85
2023/05/10 11:04:43;;;;;;;;;;;17.30;52.40;;;;;;4212956;28;19920;-85
2023/05/10 11:06:43;;;;;;;;;;;17.20;52.10;;;;;;4216939;28;19904;-84
2023/05/10 11:08:44;;;;;;;;;;;17.10;51.50;;;;;;4195965;28;20597;-84
2023/05/10 11:10:51;;;;;;;;;;;17.00;51.60;;;;;;4212987;28;19955;-85
2023/05/10 11:12:53;;;;;;;;;;;17.10;52.20;;;;;;4213253;28;19974;-87
2023/05/10 11:14:56;;;;;;;;;;;17.00;52.40;;;;;;4193789;28;19913;-85
2023/05/10 11:16:58;;;;;;;;;;;17.00;52.50;;;;;;4194593;28;19916;-86
2023/05/10 11:19:07;;;;;;;;;;;17.00;52.90;;;;;;4214445;28;20392;-86
2023/05/10 11:21:11;;;;;;;;;;;17.00;52.50;;;;;;4197092;28;19971;-85
2023/05/10 11:23:15;;;;;;;;;;;17.10;52.70;;;;;;4186259;28;19953;-86
2023/05/10 11:25:17;;;;;;;;;;;17.10;52.80;;;;;;4202903;28;19912;-86
2023/05/10 11:27:40;;;;;;;;;;;17.00;52.30;;;;;;4202958;28;19915;-85
2023/05/10 11:30:01;;;;;;;;;;;17.00;53.00;;;;;;4206253;28;19913;-86
2023/05/10 11:32:02;;;;;;;;;;;17.00;52.80;;;;;;4196778;28;19924;-87
2023/05/10 11:34:02;;;;;;;;;;;17.00;52.90;;;;;;4195495;28;19919;-84
2023/05/10 11:36:10;;;;;;;;;;;17.00;52.80;;;;;;4189435;28;20027;-85
2023/05/10 11:38:34;;;;;;;;;;;17.00;52.50;;;;;;4200530;28;19913;-86
2023/05/10 11:40:54;;;;;;;;;;;17.00;52.50;;;;;;4201078;28;19973;-86
2023/05/10 11:43:15;;;;;;;;;;;17.00;52.40;;;;;;4200798;28;19999;-85
2023/05/10 11:45:36;;;;;;;;;;;17.00;52.20;;;;;;4202684;28;19984;-84
2023/05/10 11:47:57;;;;;;;;;;;16.90;51.70;;;;;;4200359;28;19942;-85
2023/05/10 11:50:18;;;;;;;;;;;16.90;51.60;;;;;;4199498;28;19913;-85
2023/05/10 11:52:38;;;;;;;;;;;16.80;51.90;;;;;;4184745;28;19913;-85
2023/05/10 11:54:59;;;;;;;;;;;16.80;52.60;;;;;;4186265;28;19967;-84
2023/05/10 11:57:20;;;;;;;;;;;16.70;52.40;;;;;;4187123;28;19970;-85
2023/05/10 11:59:40;;;;;;;;;;;16.70;52.50;;;;;;4202777;28;20118;-86
2023/05/10 12:02:01;;;;;;;;;;;16.60;52.70;;;;;;4189215;28;20707;-85
2023/05/10 12:04:22;;;;;;;;;;;16.60;52.70;;;;;;4184364;28;19917;-86
2023/05/10 12:06:43;;;;;;;;;;;16.50;52.70;;;;;;4201898;28;19999;-85
2023/05/10 12:09:07;;;;;;;;;;;16.50;52.70;;;;;;4200665;28;19920;-85
2023/05/10 12:11:12;;;;;;;;;;;16.50;52.70;;;;;;4201497;28;19916;-85
2023/05/10 12:13:18;;;;;;;;;;;16.40;53.10;;;;;;4197541;28;19977;-84
2023/05/10 12:15:20;;;;;;;;;;;16.40;53.20;;;;;;4185044;28;20334;-85
2023/05/10 12:17:21;;;;;;;;;;;16.30;53.80;;;;;;4186219;28;20501;-84
2023/05/10 12:19:21;;;;;;;;;;;16.30;54.10;;;;;;4185988;28;19917;-84
2023/05/10 12:21:25;;;;;;;;;;;16.20;54.40;;;;;;4188662;28;19931;-85
2023/05/10 12:23:26;;;;;;;;;;;16.10;54.60;;;;;;4200772;28;19914;-85
2023/05/10 12:25:30;;;;;;;;;;;16.10;55.00;;;;;;4202820;28;19968;-85
2023/05/10 12:27:42;;;;;;;;;;;16.10;55.30;;;;;;4199546;28;19916;-86
2023/05/10 12:29:45;;;;;;;;;;;16.00;55.20;;;;;;4202332;28;19920;-86